x

Columbia River Bar - 20nm West Of Columbia River Mouth (46029) Wave Buoy

12:50 - Fri 30th Jan 2015 All times are PST. -8 hours from GMT.

  • Sig Wave height 6.2ft
  • Swell Direction
  • Peak Period 15s
  • Average Period 9s
  • Wind
    16mph, 18mph gusts
  • Sea Temp 53°f
  • Aire Temp 49°f
  • Sea Pressure 1024.2mb
  • Columbia River Bar - 20nm West Of Columbia River Mouth
  • Columbia River Bar - 20nm West Of Columbia River Mouth

More Historic Weather Station data

Upgrade to MSW Pro to gain access to the past 30 days of data for over 8000 Wavebouys and Weather Stations around the globe.

Join Pro

Comparision Forecast

View Surf forecast
   
vie 01/30 12:50 6ft 15s 9s 16 18 mph 1024.2mb 53f 49f
11:50 5ft 14s 9s 9 11 mph 1024.9mb 53f 49f
10:50 5ft 14s 9s 4 7 mph 1025.1mb 53f 49f
9:50 5.5ft 15s 9s 7
mph
1025.3mb 52f 49f
8:50 5.5ft 15s 9s 7 9 mph 1025.1mb 52f 49f
7:50 6ft 15s 9s 9 11 mph 1025.2mb 52f 49f
6:50 6ft 14s 9s 9 11 mph 1024.8mb 52f 49f
5:50 6ft 15s 9s 11 13 mph 1025mb 52f 49f
4:50 6.5ft 15s 9s 11
mph
1024.8mb 52f 49f
3:50 6ft 14s 9s 9
mph
1025mb 52f 49f
2:50 6ft 15s 9s 9 11 mph 1025.1mb 52f 49f
1:50 6ft 15s 9s 11 13 mph 1025mb 52f 50f
12:50 6ft 15s 9s 11 13 mph 1024.8mb 53f 50f
jue 01/29 11:50 6.5ft 10s 10s 11
mph
1024.7mb 53f 51f
10:50 7ft 15s 10s 9 11 mph 1024.4mb 53f 51f
9:50 6ft 15s 10s 11 13 mph 1024.3mb 52f 51f
8:50 7ft 16s 10s 11
mph
1024.5mb 52f 52f
7:50 5.5ft 15s 10s 9 11 mph 1024.3mb 53f 52f
6:50 5ft 15s 9s 13 16 mph 1024.4mb 53f 51f
5:50 5.5ft 16s 10s 13 16 mph 1024.7mb 53f 52f
4:50 5ft 16s 10s 13
mph
1024.6mb 53f 52f
3:50 5.5ft 16s 11s 7
mph
1024.4mb 53f 52f
2:50 5.5ft 17s 11s 7
mph
1024.6mb 53f 51f
1:50 5.5ft 17s  -  7
mph
1024.9mb 53f 51f
12:50 5ft 17s 9s 7 9 mph 1025.3mb 53f 51f
11:50 4.5ft 17s 9s 7
mph
1026mb 53f 51f
10:50 5ft 17s 8s 7 9 mph 1026.3mb 53f 51f
9:50 5ft 17s 8s 11 16 mph 1025.9mb 53f 51f
8:50 4.5ft 17s 8s 11 13 mph 1025.7mb 53f 51f
7:50 4ft 17s 8s 11 13 mph 1025.3mb 53f 51f
6:50 4.5ft 17s 9s 11 13 mph 1025.2mb 53f 51f
5:50 4.5ft 17s 10s 9 11 mph 1025.6mb 53f 51f
4:50 4.5ft 17s 9s 11 13 mph 1025.7mb 53f 51f
3:50 4.5ft 17s 9s 7 9 mph 1026.1mb 53f 52f
2:50 4.5ft 17s 8s 7 9 mph 1026.2mb 53f 52f
1:50 4.5ft 17s 9s 7 9 mph 1026.1mb 53f 52f
12:50 4.5ft 17s 9s 7 9 mph 1026mb 53f 53f
mié 01/28 11:50 4.5ft 19s 9s 7 9 mph 1026.1mb 53f 53f
10:50 4.5ft 19s 9s 7 11 mph 1026mb 53f 53f
9:50 5ft 19s 9s 7 9 mph 1026mb 53f 53f
8:50 4.5ft 12s 8s 9 11 mph 1025.9mb 53f 53f
7:50 4.5ft 19s 8s 7 9 mph 1026mb 53f 53f
6:50 5ft 19s 8s 11 13 mph 1025.6mb 53f 53f
5:50 4.5ft 12s 7s 9 11 mph 1025.8mb 53f 54f
4:50 4.5ft 13s 8s 11 13 mph 1025.8mb 53f 54f
3:50 4.5ft 11s 7s 11
mph
1026mb 53f 53f
2:50 5ft 12s 7s 11 13 mph 1026mb 53f 53f
1:50 5ft 11s 7s 13 16 mph 1026.1mb 53f 53f
12:50 4.5ft 13s 7s 11 13 mph 1026.5mb 53f 52f
11:50 4.5ft 12s 7s 13 16 mph 1027mb 53f 52f
10:50 5.5ft 13s 8s 11 13 mph 1027.1mb 53f 51f
9:50 5.5ft 12s 7s 9 11 mph 1026.7mb 53f 51f
8:50 5.5ft 12s 7s 9 11 mph 1026.3mb 53f 51f
7:50 5ft 13s 7s 11 16 mph 1025.9mb 53f 49f
6:50 5.5ft 13s 8s 13 16 mph 1025.6mb 53f 48f
5:50 5.5ft 13s 7s 13 18 mph 1025.6mb 53f 48f
4:50 6.5ft 13s 8s 13 18 mph 1025.6mb 53f 49f
3:50 6ft 14s 8s 13 16 mph 1025.9mb 53f 49f
2:50 6ft 13s 8s 13 16 mph 1026mb 53f 49f
1:50 6.5ft 14s 8s 13 16 mph 1026.1mb 53f 50f
12:50 6.5ft 12s 8s 13 16 mph 1025.6mb 53f 50f
mar 01/27 11:50 7ft 14s 8s 13 16 mph 1025.3mb 53f 50f
10:50 7ft 13s 7s 11 13 mph 1024.8mb 53f 50f
9:50 7ft 12s 7s 11 13 mph 1024.5mb 53f 51f
8:50 7.5ft 12s 8s 13 16 mph 1023.9mb 53f 51f
7:50 7ft 13s 8s 11 13 mph 1023.2mb 53f 51f
6:50 7ft 14s 8s 7 9 mph 1022.8mb 53f 51f
5:50 6.5ft 13s 8s 9 13 mph 1022.1mb 53f 51f
4:50 7ft 14s 8s 13 16 mph 1021.7mb 53f 51f
3:50 6ft 13s 8s 11 13 mph 1021.2mb 53f 51f
2:50 6ft 14s 8s 11 16 mph 1020.7mb 53f 51f
1:50 6ft 13s 8s 13
mph
1020.2mb 53f 51f
12:50 6ft 12s 8s 9 11 mph 1020.1mb 53f 51f
11:50 7ft 15s 8s 2 4 mph 1020mb 53f 52f
10:50 6.5ft 14s 8s 7 9 mph 1019.6mb 53f 51f
9:50 7ft 14s 8s 11 13 mph 1018.6mb 53f 51f
8:50 6.5ft 14s 8s 13 16 mph 1017.8mb 53f 51f
7:50 7ft 12s 8s 9 18 mph 1016.9mb 53f 52f
6:50 6ft 14s 7s 9 11 mph 1016.3mb 53f 52f
5:50 7ft 14s 8s 9 11 mph 1015.9mb 53f 52f
4:50 7ft 13s 8s 9 13 mph 1015.7mb 53f 53f
3:50 7ft 13s 8s 9 11 mph 1015.6mb 53f 53f
2:50 7ft 14s 8s 9 11 mph 1015.6mb 53f 53f
1:50 7.5ft 13s 7s 11
mph
1015.5mb 53f 53f
12:50 7.5ft 13s 7s 11 13 mph 1015.6mb 53f 53f
lun 01/26 11:50 8.5ft 11s 8s 11 13 mph 1015.6mb 53f 53f
10:50 8ft 13s 7s 11 13 mph 1015.4mb 53f 53f